Hlavní strana
METAR-TAF:

METAR-TAF

Letiště :

Nadi, Fidži

zeměpisná šířka: 17-45S, zeměpisná délka: 177-27E, výška: 13 m

Aktuální stav počasí

Zpráva byla vytvořena před 37 minutami, v 14:00 UTC
Východní vítr 5 kt
Teplota 22°C
Vlhkost vzduchu 88%
Tlak 1014 hPa
Viditelnost 10 km a více
Skoro jasno ve výšce 3000 ft

METAR: NFFN 241400Z 08005KT 9999 FEW030 22/20 Q1014 NOSIG

Čas: 02:37 (14:37 UTC)

Předpověď počasí

Zpráva byla vytvořena před 3 hodinami a 30 minutami, v 11:07 UTC
Předpověď platná od 24 v 12 UTC do 25 v 12 UTC
Východní vítr 5 kt
Viditelnost 10 km a více
Skoro jasno ve výšce 2800 ft
Polojasno ve výšce 10000 ft
Změna
od 24 v 22 UTC do 24 v 24 UTC
Západní vítr 10 kt
Změna
od 25 v 04 UTC do 25 v 06 UTC
Východojihovýchodní vítr 6 kt

TAF: NFFN 241107Z 2412/2512 09005KT 9999 FEW028 SCT100 BECMG 2422/2424 26010KT BECMG 2504/2506 11006KT

Stav a předpovědi počasí z více než 4 000 letišť (zprávy METAR a TAF).

Červené a žluté tečky na mapě představují dostupné meteorologické stanice.

Když kurzor umístíte na tečku, zobrazí se název stanice.

Pak kliknutím zobrazíte stav a předpověď počasí.

Chcete-li změnit mapu, kliknutím na zelené tlačítko se znaménkem +mapu přiblížíte, kliknutím na zelené tlačítko se znaménkem – mapu oddálíte a kliknutím na zelené šipky přejdete na sousední mapy.


METAR-TAF: